sensor_id;sensor_type;location;lat;lon;timestamp;pressure;altitude;pressure_sealevel;temperature;humidity
19594;BME280;9944;48.240;16.478;2023-05-24T00:03:03;99661.22;;;16.72;72.10
19594;BME280;9944;48.240;16.478;2023-05-24T00:07:09;99652.41;;;16.70;72.09
19594;BME280;9944;48.240;16.478;2023-05-24T00:11:12;99650.75;;;16.66;71.86
19594;BME280;9944;48.240;16.478;2023-05-24T00:15:15;99653.53;;;16.63;71.85
19594;BME280;9944;48.240;16.478;2023-05-24T00:19:18;99645.63;;;16.60;71.66
19594;BME280;9944;48.240;16.478;2023-05-24T00:23:25;99640.38;;;16.57;71.45
19594;BME280;9944;48.240;16.478;2023-05-24T00:27:28;99635.13;;;16.54;70.89
19594;BME280;9944;48.240;16.478;2023-05-24T00:31:31;99645.06;;;16.49;70.97
19594;BME280;9944;48.240;16.478;2023-05-24T00:35:34;99635.44;;;16.44;70.61
19594;BME280;9944;48.240;16.478;2023-05-24T00:39:39;99648.09;;;16.36;70.39
19594;BME280;9944;48.240;16.478;2023-05-24T00:43:42;99651.78;;;16.32;70.37
19594;BME280;9944;48.240;16.478;2023-05-24T00:47:46;99650.16;;;16.28;70.46
19594;BME280;9944;48.240;16.478;2023-05-24T00:51:50;99652.03;;;16.24;70.49
19594;BME280;9944;48.240;16.478;2023-05-24T00:55:55;99662.72;;;16.23;70.33
19594;BME280;9944;48.240;16.478;2023-05-24T00:59:58;99660.97;;;16.22;70.25
19594;BME280;9944;48.240;16.478;2023-05-24T01:04:02;99657.50;;;16.20;70.21
19594;BME280;9944;48.240;16.478;2023-05-24T01:08:18;99661.06;;;16.19;70.25
19594;BME280;9944;48.240;16.478;2023-05-24T01:12:31;99661.16;;;16.16;70.22
19594;BME280;9944;48.240;16.478;2023-05-24T01:16:42;99652.44;;;16.11;70.03
19594;BME280;9944;48.240;16.478;2023-05-24T01:20:49;99658.72;;;16.08;70.25
19594;BME280;9944;48.240;16.478;2023-05-24T01:25:00;99654.25;;;16.09;70.13
19594;BME280;9944;48.240;16.478;2023-05-24T01:29:06;99653.41;;;16.06;70.08
19594;BME280;9944;48.240;16.478;2023-05-24T01:33:11;99648.34;;;15.99;69.70
19594;BME280;9944;48.240;16.478;2023-05-24T01:37:14;99653.72;;;15.96;69.93
19594;BME280;9944;48.240;16.478;2023-05-24T01:41:26;99659.13;;;15.93;69.82
19594;BME280;9944;48.240;16.478;2023-05-24T01:45:37;99668.19;;;15.85;69.82
19594;BME280;9944;48.240;16.478;2023-05-24T01:49:48;99672.72;;;15.82;70.08
19594;BME280;9944;48.240;16.478;2023-05-24T01:53:53;99680.81;;;15.77;69.85
19594;BME280;9944;48.240;16.478;2023-05-24T01:58:02;99685.44;;;15.70;69.97
19594;BME280;9944;48.240;16.478;2023-05-24T02:02:07;99682.84;;;15.69;69.84
19594;BME280;9944;48.240;16.478;2023-05-24T02:06:11;99683.78;;;15.66;69.99
19594;BME280;9944;48.240;16.478;2023-05-24T02:10:14;99685.66;;;15.63;70.18
19594;BME280;9944;48.240;16.478;2023-05-24T02:14:18;99679.50;;;15.61;70.23
19594;BME280;9944;48.240;16.478;2023-05-24T02:18:24;99679.59;;;15.56;70.08
19594;BME280;9944;48.240;16.478;2023-05-24T02:22:27;99680.63;;;15.52;70.18
19594;BME280;9944;48.240;16.478;2023-05-24T02:26:31;99681.66;;;15.46;70.35
19594;BME280;9944;48.240;16.478;2023-05-24T02:30:34;99686.16;;;15.43;70.36
19594;BME280;9944;48.240;16.478;2023-05-24T02:34:40;99685.56;;;15.31;70.30
19594;BME280;9944;48.240;16.478;2023-05-24T02:38:44;99695.44;;;15.26;70.38
19594;BME280;9944;48.240;16.478;2023-05-24T02:42:48;99693.78;;;15.22;70.26
19594;BME280;9944;48.240;16.478;2023-05-24T02:46:51;99687.66;;;15.19;70.36
19594;BME280;9944;48.240;16.478;2023-05-24T02:50:55;99688.66;;;15.13;70.36
19594;BME280;9944;48.240;16.478;2023-05-24T02:54:58;99689.72;;;15.06;70.41
19594;BME280;9944;48.240;16.478;2023-05-24T02:59:02;99695.22;;;15.00;70.48
19594;BME280;9944;48.240;16.478;2023-05-24T03:03:06;99699.66;;;14.98;70.51
19594;BME280;9944;48.240;16.478;2023-05-24T03:07:11;99698.88;;;14.92;70.75
19594;BME280;9944;48.240;16.478;2023-05-24T03:11:16;99709.59;;;14.91;71.04
19594;BME280;9944;48.240;16.478;2023-05-24T03:15:23;99703.41;;;14.89;71.02
19594;BME280;9944;48.240;16.478;2023-05-24T03:19:26;99699.03;;;14.88;70.68
19594;BME280;9944;48.240;16.478;2023-05-24T03:23:32;99708.06;;;14.78;71.04
19594;BME280;9944;48.240;16.478;2023-05-24T03:27:35;99707.22;;;14.77;71.22
19594;BME280;9944;48.240;16.478;2023-05-24T03:31:39;99720.44;;;14.79;71.63
19594;BME280;9944;48.240;16.478;2023-05-24T03:35:42;99716.06;;;14.76;71.49
19594;BME280;9944;48.240;16.478;2023-05-24T03:39:47;99706.50;;;14.69;71.44
19594;BME280;9944;48.240;16.478;2023-05-24T03:44:08;99715.41;;;14.66;71.68
19594;BME280;9944;48.240;16.478;2023-05-24T03:48:11;99719.84;;;14.66;71.60
19594;BME280;9944;48.240;16.478;2023-05-24T03:52:15;99733.19;;;14.63;71.52
19594;BME280;9944;48.240;16.478;2023-05-24T03:56:19;99727.84;;;14.64;71.48
19594;BME280;9944;48.240;16.478;2023-05-24T04:00:23;99732.22;;;14.67;71.62
19594;BME280;9944;48.240;16.478;2023-05-24T04:04:26;99731.31;;;14.68;71.75
19594;BME280;9944;48.240;16.478;2023-05-24T04:08:29;99733.94;;;14.69;71.75
19594;BME280;9944;48.240;16.478;2023-05-24T04:12:34;99737.41;;;14.73;71.81
19594;BME280;9944;48.240;16.478;2023-05-24T04:16:40;99735.56;;;14.75;71.87
19594;BME280;9944;48.240;16.478;2023-05-24T04:20:45;99748.03;;;14.73;71.72
19594;BME280;9944;48.240;16.478;2023-05-24T04:24:49;99747.09;;;14.75;71.80
19594;BME280;9944;48.240;16.478;2023-05-24T04:28:53;99757.72;;;14.75;71.72
19594;BME280;9944;48.240;16.478;2023-05-24T04:32:57;99755.03;;;14.77;71.77
19594;BME280;9944;48.240;16.478;2023-05-24T04:37:02;99757.72;;;14.75;71.52
19594;BME280;9944;48.240;16.478;2023-05-24T04:41:05;99761.31;;;14.73;71.91
19594;BME280;9944;48.240;16.478;2023-05-24T04:45:10;99769.28;;;14.73;71.57
19594;BME280;9944;48.240;16.478;2023-05-24T04:49:13;99769.34;;;14.70;71.70
19594;BME280;9944;48.240;16.478;2023-05-24T04:53:16;99773.78;;;14.69;71.88
19594;BME280;9944;48.240;16.478;2023-05-24T04:57:20;99779.91;;;14.73;72.04
19594;BME280;9944;48.240;16.478;2023-05-24T05:01:24;99785.19;;;14.74;72.17
19594;BME280;9944;48.240;16.478;2023-05-24T05:05:27;99786.94;;;14.77;71.91
19594;BME280;9944;48.240;16.478;2023-05-24T05:09:31;99793.03;;;14.82;72.14
19594;BME280;9944;48.240;16.478;2023-05-24T05:13:34;99793.75;;;14.90;72.34
19594;BME280;9944;48.240;16.478;2023-05-24T05:17:38;99793.59;;;14.98;71.99
19594;BME280;9944;48.240;16.478;2023-05-24T05:21:42;99795.28;;;15.02;71.47
19594;BME280;9944;48.240;16.478;2023-05-24T05:25:45;99803.03;;;15.11;71.25
19594;BME280;9944;48.240;16.478;2023-05-24T05:29:48;99798.41;;;15.20;70.85
19594;BME280;9944;48.240;16.478;2023-05-24T05:33:52;99796.38;;;15.33;70.42
19594;BME280;9944;48.240;16.478;2023-05-24T05:37:55;99798.66;;;15.48;70.38
19594;BME280;9944;48.240;16.478;2023-05-24T05:41:58;99808.09;;;15.61;70.06
19594;BME280;9944;48.240;16.478;2023-05-24T05:46:03;99812.28;;;15.72;68.13
19594;BME280;9944;48.240;16.478;2023-05-24T05:50:08;99807.66;;;15.80;68.39
19594;BME280;9944;48.240;16.478;2023-05-24T05:54:11;99819.59;;;15.99;68.04
19594;BME280;9944;48.240;16.478;2023-05-24T05:58:18;99816.50;;;16.16;67.53
19594;BME280;9944;48.240;16.478;2023-05-24T06:02:22;99825.75;;;16.36;66.97
19594;BME280;9944;48.240;16.478;2023-05-24T06:06:26;99827.22;;;16.48;66.49
19594;BME280;9944;48.240;16.478;2023-05-24T06:10:30;99830.53;;;16.56;65.84
19594;BME280;9944;48.240;16.478;2023-05-24T06:14:33;99836.63;;;16.61;65.01
19594;BME280;9944;48.240;16.478;2023-05-24T06:18:39;99839.09;;;16.67;64.80
19594;BME280;9944;48.240;16.478;2023-05-24T06:22:59;99848.69;;;16.73;64.30
19594;BME280;9944;48.240;16.478;2023-05-24T06:27:03;99843.13;;;16.84;64.65
19594;BME280;9944;48.240;16.478;2023-05-24T06:31:06;99845.59;;;16.90;63.88
19594;BME280;9944;48.240;16.478;2023-05-24T06:35:09;99837.44;;;16.96;63.59
19594;BME280;9944;48.240;16.478;2023-05-24T06:39:14;99840.63;;;17.07;64.02
19594;BME280;9944;48.240;16.478;2023-05-24T06:43:18;99849.03;;;17.23;62.71
19594;BME280;9944;48.240;16.478;2023-05-24T06:47:21;99849.03;;;17.23;61.72
19594;BME280;9944;48.240;16.478;2023-05-24T06:51:24;99843.72;;;17.23;62.26
19594;BME280;9944;48.240;16.478;2023-05-24T06:55:29;99850.75;;;17.26;61.81
19594;BME280;9944;48.240;16.478;2023-05-24T06:59:32;99849.56;;;17.36;62.36
19594;BME280;9944;48.240;16.478;2023-05-24T07:03:35;99851.50;;;17.59;62.83
19594;BME280;9944;48.240;16.478;2023-05-24T07:07:39;99853.44;;;17.82;62.03
19594;BME280;9944;48.240;16.478;2023-05-24T07:11:44;99850.69;;;17.85;61.35
19594;BME280;9944;48.240;16.478;2023-05-24T07:15:47;99858.38;;;17.94;61.14
19594;BME280;9944;48.240;16.478;2023-05-24T07:19:50;99863.44;;;18.04;60.43
19594;BME280;9944;48.240;16.478;2023-05-24T07:23:53;99860.25;;;17.92;60.61
19594;BME280;9944;48.240;16.478;2023-05-24T07:27:59;99859.97;;;18.02;61.35
19594;BME280;9944;48.240;16.478;2023-05-24T07:32:02;99858.06;;;18.05;61.47
19594;BME280;9944;48.240;16.478;2023-05-24T07:36:05;99862.41;;;18.08;61.12
19594;BME280;9944;48.240;16.478;2023-05-24T07:40:09;99868.47;;;18.13;60.74
19594;BME280;9944;48.240;16.478;2023-05-24T07:44:14;99869.81;;;18.26;61.00
19594;BME280;9944;48.240;16.478;2023-05-24T07:48:17;99871.13;;;18.40;60.76
19594;BME280;9944;48.240;16.478;2023-05-24T07:52:20;99877.78;;;18.53;60.18
19594;BME280;9944;48.240;16.478;2023-05-24T07:56:24;99879.72;;;18.48;59.88
19594;BME280;9944;48.240;16.478;2023-05-24T08:00:28;99892.72;;;18.34;59.57
19594;BME280;9944;48.240;16.478;2023-05-24T08:04:31;99883.31;;;18.22;59.57
19594;BME280;9944;48.240;16.478;2023-05-24T08:08:34;99882.34;;;18.24;59.70
19594;BME280;9944;48.240;16.478;2023-05-24T08:12:38;99882.13;;;18.30;59.91
19594;BME280;9944;48.240;16.478;2023-05-24T08:16:42;99885.03;;;18.24;58.93
19594;BME280;9944;48.240;16.478;2023-05-24T08:20:45;99889.75;;;18.16;58.87
19594;BME280;9944;48.240;16.478;2023-05-24T08:24:48;99891.47;;;18.17;57.96
19594;BME280;9944;48.240;16.478;2023-05-24T08:28:52;99899.72;;;18.11;58.26
19594;BME280;9944;48.240;16.478;2023-05-24T08:32:56;99893.91;;;18.25;59.07
19594;BME280;9944;48.240;16.478;2023-05-24T08:36:59;99899.91;;;18.31;58.26
19594;BME280;9944;48.240;16.478;2023-05-24T08:41:04;99890.19;;;18.29;58.01
19594;BME280;9944;48.240;16.478;2023-05-24T08:45:11;99892.81;;;18.30;58.46
19594;BME280;9944;48.240;16.478;2023-05-24T08:49:16;99885.75;;;18.29;57.94
19594;BME280;9944;48.240;16.478;2023-05-24T08:53:20;99889.22;;;18.31;58.08
19594;BME280;9944;48.240;16.478;2023-05-24T08:57:25;99896.25;;;18.34;58.31
19594;BME280;9944;48.240;16.478;2023-05-24T09:01:29;99893.75;;;18.29;57.98
19594;BME280;9944;48.240;16.478;2023-05-24T09:05:39;99892.63;;;18.37;58.38
19594;BME280;9944;48.240;16.478;2023-05-24T09:09:47;99894.47;;;18.35;57.82
19594;BME280;9944;48.240;16.478;2023-05-24T09:13:52;99890.22;;;18.54;58.28
19594;BME280;9944;48.240;16.478;2023-05-24T09:17:58;99887.44;;;18.57;56.71
19594;BME280;9944;48.240;16.478;2023-05-24T09:22:02;99898.97;;;18.59;57.49
19594;BME280;9944;48.240;16.478;2023-05-24T09:26:07;99897.03;;;18.64;57.05
19594;BME280;9944;48.240;16.478;2023-05-24T09:30:11;99889.47;;;18.76;56.95
19594;BME280;9944;48.240;16.478;2023-05-24T09:34:16;99898.00;;;18.87;56.64
19594;BME280;9944;48.240;16.478;2023-05-24T09:38:23;99904.97;;;18.91;55.20
19594;BME280;9944;48.240;16.478;2023-05-24T09:42:28;99893.38;;;18.92;55.68
19594;BME280;9944;48.240;16.478;2023-05-24T09:46:34;99891.41;;;18.97;55.71
19594;BME280;9944;48.240;16.478;2023-05-24T09:50:39;99903.72;;;19.01;55.45
19594;BME280;9944;48.240;16.478;2023-05-24T09:54:44;99904.63;;;19.00;54.98
19594;BME280;9944;48.240;16.478;2023-05-24T09:58:48;99902.66;;;19.05;55.63
19594;BME280;9944;48.240;16.478;2023-05-24T10:03:02;99908.97;;;19.04;55.49
19594;BME280;9944;48.240;16.478;2023-05-24T10:07:07;99917.84;;;19.05;56.20
19594;BME280;9944;48.240;16.478;2023-05-24T10:11:12;99905.28;;;19.07;56.41
19594;BME280;9944;48.240;16.478;2023-05-24T10:15:15;99912.28;;;19.11;56.17
19594;BME280;9944;48.240;16.478;2023-05-24T10:19:19;99909.16;;;19.23;55.84
19594;BME280;9944;48.240;16.478;2023-05-24T10:23:23;99906.16;;;19.31;55.92
19594;BME280;9944;48.240;16.478;2023-05-24T10:27:30;99905.00;;;19.38;55.28
19594;BME280;9944;48.240;16.478;2023-05-24T10:31:35;99897.47;;;19.50;55.16
19594;BME280;9944;48.240;16.478;2023-05-24T10:35:40;99898.84;;;19.60;54.69
19594;BME280;9944;48.240;16.478;2023-05-24T10:39:45;99883.72;;;19.59;55.26
19594;BME280;9944;48.240;16.478;2023-05-24T10:48:35;99898.06;;;19.58;55.17
19594;BME280;9944;48.240;16.478;2023-05-24T10:52:38;99895.22;;;19.61;54.66
19594;BME280;9944;48.240;16.478;2023-05-24T10:56:46;99904.22;;;19.60;54.50
19594;BME280;9944;48.240;16.478;2023-05-24T11:00:51;99907.44;;;19.68;53.63
19594;BME280;9944;48.240;16.478;2023-05-24T11:04:55;99914.81;;;19.63;54.50
19594;BME280;9944;48.240;16.478;2023-05-24T11:08:59;99918.63;;;19.56;54.52
19594;BME280;9944;48.240;16.478;2023-05-24T11:13:03;99916.09;;;19.53;53.80
19594;BME280;9944;48.240;16.478;2023-05-24T11:17:10;99911.78;;;19.49;54.30
19594;BME280;9944;48.240;16.478;2023-05-24T11:21:13;99902.81;;;19.50;54.49
19594;BME280;9944;48.240;16.478;2023-05-24T11:25:17;99903.47;;;19.56;54.51
19594;BME280;9944;48.240;16.478;2023-05-24T11:29:20;99901.09;;;19.71;54.36
19594;BME280;9944;48.240;16.478;2023-05-24T11:33:25;99887.25;;;19.81;53.36
19594;BME280;9944;48.240;16.478;2023-05-24T11:37:28;99885.16;;;19.90;53.06
19594;BME280;9944;48.240;16.478;2023-05-24T11:41:46;99882.88;;;20.01;52.94
19594;BME280;9944;48.240;16.478;2023-05-24T11:45:50;99888.69;;;20.12;52.80
19594;BME280;9944;48.240;16.478;2023-05-24T11:49:55;99889.44;;;20.16;52.11
19594;BME280;9944;48.240;16.478;2023-05-24T11:53:58;99887.00;;;20.10;50.71
19594;BME280;9944;48.240;16.478;2023-05-24T11:58:05;99882.78;;;20.04;51.18
19594;BME280;9944;48.240;16.478;2023-05-24T12:02:09;99880.09;;;20.04;51.47
19594;BME280;9944;48.240;16.478;2023-05-24T12:06:13;99877.03;;;20.13;51.96
19594;BME280;9944;48.240;16.478;2023-05-24T12:10:17;99879.84;;;20.10;51.70
19594;BME280;9944;48.240;16.478;2023-05-24T12:14:26;99877.16;;;20.10;51.71
19594;BME280;9944;48.240;16.478;2023-05-24T12:18:32;99881.06;;;20.24;52.38
19594;BME280;9944;48.240;16.478;2023-05-24T12:22:47;99880.94;;;20.27;50.88
19594;BME280;9944;48.240;16.478;2023-05-24T12:26:57;99876.53;;;20.26;51.89
19594;BME280;9944;48.240;16.478;2023-05-24T12:31:01;99867.19;;;20.36;51.32
19594;BME280;9944;48.240;16.478;2023-05-24T12:35:05;99874.16;;;20.40;50.84
19594;BME280;9944;48.240;16.478;2023-05-24T12:39:20;99873.47;;;20.35;50.38
19594;BME280;9944;48.240;16.478;2023-05-24T12:43:23;99868.09;;;20.35;50.25
19594;BME280;9944;48.240;16.478;2023-05-24T12:47:26;99852.81;;;20.37;50.45
19594;BME280;9944;48.240;16.478;2023-05-24T12:51:29;99861.41;;;20.45;50.79
19594;BME280;9944;48.240;16.478;2023-05-24T12:55:34;99858.00;;;20.42;50.71
19594;BME280;9944;48.240;16.478;2023-05-24T12:59:37;99856.78;;;20.49;50.90
19594;BME280;9944;48.240;16.478;2023-05-24T13:03:41;99861.94;;;20.53;51.42
19594;BME280;9944;48.240;16.478;2023-05-24T13:07:44;99858.53;;;20.50;50.65
19594;BME280;9944;48.240;16.478;2023-05-24T13:11:48;99852.94;;;20.54;50.91
19594;BME280;9944;48.240;16.478;2023-05-24T13:15:51;99852.75;;;20.59;50.83
19594;BME280;9944;48.240;16.478;2023-05-24T13:19:57;99849.94;;;20.62;50.39
19594;BME280;9944;48.240;16.478;2023-05-24T13:24:00;99850.44;;;20.70;50.43
19594;BME280;9944;48.240;16.478;2023-05-24T13:28:05;99858.84;;;20.63;49.71
19594;BME280;9944;48.240;16.478;2023-05-24T13:32:08;99852.81;;;20.58;50.07
19594;BME280;9944;48.240;16.478;2023-05-24T13:36:11;99846.78;;;20.52;50.70
19594;BME280;9944;48.240;16.478;2023-05-24T13:40:14;99843.72;;;20.41;50.33
19594;BME280;9944;48.240;16.478;2023-05-24T13:44:19;99842.50;;;20.28;50.66
19594;BME280;9944;48.240;16.478;2023-05-24T13:48:22;99841.00;;;20.21;51.00
19594;BME280;9944;48.240;16.478;2023-05-24T13:52:26;99833.00;;;20.19;51.03
19594;BME280;9944;48.240;16.478;2023-05-24T13:56:29;99831.88;;;20.25;50.59
19594;BME280;9944;48.240;16.478;2023-05-24T14:00:36;99826.41;;;20.28;51.25
19594;BME280;9944;48.240;16.478;2023-05-24T14:04:39;99822.53;;;20.35;50.37
19594;BME280;9944;48.240;16.478;2023-05-24T14:08:42;99821.59;;;20.36;50.03
19594;BME280;9944;48.240;16.478;2023-05-24T14:12:45;99814.41;;;20.36;50.45
19594;BME280;9944;48.240;16.478;2023-05-24T14:17:05;99811.38;;;20.44;49.82
19594;BME280;9944;48.240;16.478;2023-05-24T14:21:08;99805.03;;;20.47;49.97
19594;BME280;9944;48.240;16.478;2023-05-24T14:25:12;99800.09;;;20.56;51.47
19594;BME280;9944;48.240;16.478;2023-05-24T14:29:15;99807.59;;;20.69;50.46
19594;BME280;9944;48.240;16.478;2023-05-24T14:33:20;99808.41;;;20.71;49.56
19594;BME280;9944;48.240;16.478;2023-05-24T14:37:24;99801.16;;;20.73;50.16
19594;BME280;9944;48.240;16.478;2023-05-24T14:41:27;99791.88;;;20.80;50.01
19594;BME280;9944;48.240;16.478;2023-05-24T14:45:30;99801.25;;;20.90;50.29
19594;BME280;9944;48.240;16.478;2023-05-24T14:49:35;99798.44;;;20.93;49.21
19594;BME280;9944;48.240;16.478;2023-05-24T14:53:38;99790.66;;;20.87;49.99
19594;BME280;9944;48.240;16.478;2023-05-24T14:57:41;99798.84;;;20.84;49.09
19594;BME280;9944;48.240;16.478;2023-05-24T15:01:44;99803.66;;;20.78;48.74
19594;BME280;9944;48.240;16.478;2023-05-24T15:05:49;99799.41;;;20.72;49.78
19594;BME280;9944;48.240;16.478;2023-05-24T15:09:53;99803.44;;;20.62;50.72
19594;BME280;9944;48.240;16.478;2023-05-24T15:13:56;99799.97;;;20.60;51.07
19594;BME280;9944;48.240;16.478;2023-05-24T15:18:00;99799.09;;;20.59;51.08
19594;BME280;9944;48.240;16.478;2023-05-24T15:22:05;99802.78;;;20.56;50.92
19594;BME280;9944;48.240;16.478;2023-05-24T15:26:08;99801.38;;;20.48;50.64
19594;BME280;9944;48.240;16.478;2023-05-24T15:30:12;99795.44;;;20.41;50.42
19594;BME280;9944;48.240;16.478;2023-05-24T15:34:15;99793.81;;;20.37;50.69
19594;BME280;9944;48.240;16.478;2023-05-24T15:38:19;99786.88;;;20.33;51.04
19594;BME280;9944;48.240;16.478;2023-05-24T15:42:23;99794.34;;;20.25;51.29
19594;BME280;9944;48.240;16.478;2023-05-24T15:46:26;99794.47;;;20.22;51.42
19594;BME280;9944;48.240;16.478;2023-05-24T15:50:29;99800.13;;;20.15;51.56
19594;BME280;9944;48.240;16.478;2023-05-24T15:54:54;99804.00;;;20.08;51.38
19594;BME280;9944;48.240;16.478;2023-05-24T15:58:57;99803.38;;;20.02;51.40
19594;BME280;9944;48.240;16.478;2023-05-24T16:03:00;99804.59;;;19.94;51.29
19594;BME280;9944;48.240;16.478;2023-05-24T16:07:05;99810.38;;;19.84;51.38
19594;BME280;9944;48.240;16.478;2023-05-24T16:11:09;99810.66;;;19.77;50.88
19594;BME280;9944;48.240;16.478;2023-05-24T16:15:12;99803.66;;;19.73;52.05
19594;BME280;9944;48.240;16.478;2023-05-24T16:19:16;99803.94;;;19.67;52.15
19594;BME280;9944;48.240;16.478;2023-05-24T16:23:19;99807.53;;;19.66;52.49
19594;BME280;9944;48.240;16.478;2023-05-24T16:27:25;99809.34;;;19.66;52.30
19594;BME280;9944;48.240;16.478;2023-05-24T16:31:29;99808.44;;;19.67;52.07
19594;BME280;9944;48.240;16.478;2023-05-24T16:35:32;99819.13;;;19.67;52.08
19594;BME280;9944;48.240;16.478;2023-05-24T16:39:35;99812.41;;;19.56;52.39
19594;BME280;9944;48.240;16.478;2023-05-24T16:43:40;99827.97;;;19.47;52.36
19594;BME280;9944;48.240;16.478;2023-05-24T16:47:44;99831.72;;;19.41;52.43
19594;BME280;9944;48.240;16.478;2023-05-24T16:51:47;99840.75;;;19.38;52.30
19594;BME280;9944;48.240;16.478;2023-05-24T16:55:50;99841.81;;;19.34;52.60
19594;BME280;9944;48.240;16.478;2023-05-24T16:59:56;99844.72;;;19.28;52.87
19594;BME280;9944;48.240;16.478;2023-05-24T17:03:59;99846.56;;;19.26;52.70
19594;BME280;9944;48.240;16.478;2023-05-24T17:08:03;99855.63;;;19.23;53.26
19594;BME280;9944;48.240;16.478;2023-05-24T17:12:06;99862.75;;;19.23;53.71
19594;BME280;9944;48.240;16.478;2023-05-24T17:16:11;99860.97;;;19.23;54.44
19594;BME280;9944;48.240;16.478;2023-05-24T17:20:14;99866.50;;;19.19;54.45
19594;BME280;9944;48.240;16.478;2023-05-24T17:24:18;99866.59;;;19.16;54.22
19594;BME280;9944;48.240;16.478;2023-05-24T17:28:24;99876.56;;;19.12;54.47
19594;BME280;9944;48.240;16.478;2023-05-24T17:32:29;99883.00;;;19.06;54.24
19594;BME280;9944;48.240;16.478;2023-05-24T17:36:33;99893.00;;;19.01;54.51
19594;BME280;9944;48.240;16.478;2023-05-24T17:40:38;99896.84;;;18.94;54.78
19594;BME280;9944;48.240;16.478;2023-05-24T17:44:41;99902.34;;;18.90;54.98
19594;BME280;9944;48.240;16.478;2023-05-24T17:48:46;99903.47;;;18.84;55.16
19594;BME280;9944;48.240;16.478;2023-05-24T17:52:49;99896.50;;;18.80;55.62
19594;BME280;9944;48.240;16.478;2023-05-24T17:56:52;99895.78;;;18.75;55.57
19594;BME280;9944;48.240;16.478;2023-05-24T18:00:55;99905.78;;;18.69;55.57
19594;BME280;9944;48.240;16.478;2023-05-24T18:05:00;99909.59;;;18.62;55.81
19594;BME280;9944;48.240;16.478;2023-05-24T18:09:03;99913.34;;;18.55;55.88
19594;BME280;9944;48.240;16.478;2023-05-24T18:13:07;99912.72;;;18.48;56.24
19594;BME280;9944;48.240;16.478;2023-05-24T18:17:12;99921.78;;;18.43;56.50
19594;BME280;9944;48.240;16.478;2023-05-24T18:21:17;99928.28;;;18.36;56.83
19594;BME280;9944;48.240;16.478;2023-05-24T18:25:20;99917.81;;;18.29;56.72
19594;BME280;9944;48.240;16.478;2023-05-24T18:29:23;99937.53;;;18.25;56.91
19594;BME280;9944;48.240;16.478;2023-05-24T18:33:26;99944.81;;;18.20;57.20
19594;BME280;9944;48.240;16.478;2023-05-24T18:37:31;99952.25;;;18.12;57.40
19594;BME280;9944;48.240;16.478;2023-05-24T18:41:34;99964.03;;;18.05;58.03
19594;BME280;9944;48.240;16.478;2023-05-24T18:45:37;99963.28;;;18.00;58.36
19594;BME280;9944;48.240;16.478;2023-05-24T18:49:40;99976.09;;;17.90;58.54
19594;BME280;9944;48.240;16.478;2023-05-24T18:53:45;99976.28;;;17.82;59.08
19594;BME280;9944;48.240;16.478;2023-05-24T18:57:49;99980.03;;;17.77;59.57
19594;BME280;9944;48.240;16.478;2023-05-24T19:01:53;99986.38;;;17.72;60.06
19594;BME280;9944;48.240;16.478;2023-05-24T19:05:56;99997.19;;;17.68;60.07
19594;BME280;9944;48.240;16.478;2023-05-24T19:10:02;99994.72;;;17.62;60.37
19594;BME280;9944;48.240;16.478;2023-05-24T19:14:05;100012.75;;;17.53;60.77
19594;BME280;9944;48.240;16.478;2023-05-24T19:18:08;100012.97;;;17.44;60.64
19594;BME280;9944;48.240;16.478;2023-05-24T19:22:12;100016.75;;;17.37;60.95
19594;BME280;9944;48.240;16.478;2023-05-24T19:26:18;100023.22;;;17.28;61.28
19594;BME280;9944;48.240;16.478;2023-05-24T19:30:21;100029.69;;;17.19;61.29
19594;BME280;9944;48.240;16.478;2023-05-24T19:34:24;100023.75;;;17.10;61.60
19594;BME280;9944;48.240;16.478;2023-05-24T19:38:29;100030.28;;;16.98;61.96
19594;BME280;9944;48.240;16.478;2023-05-24T19:42:34;100031.31;;;16.92;62.14
19594;BME280;9944;48.240;16.478;2023-05-24T19:46:37;100033.28;;;16.86;62.20
19594;BME280;9944;48.240;16.478;2023-05-24T19:50:40;100037.84;;;16.79;62.47
19594;BME280;9944;48.240;16.478;2023-05-24T19:54:44;100039.84;;;16.69;62.43
19594;BME280;9944;48.240;16.478;2023-05-24T19:58:49;100047.09;;;16.64;62.93
19594;BME280;9944;48.240;16.478;2023-05-24T20:02:52;100054.31;;;16.59;63.13
19594;BME280;9944;48.240;16.478;2023-05-24T20:06:56;100050.13;;;16.49;63.44
19594;BME280;9944;48.240;16.478;2023-05-24T20:10:59;100058.28;;;16.42;63.69
19594;BME280;9944;48.240;16.478;2023-05-24T20:15:06;100061.00;;;16.39;63.65
19594;BME280;9944;48.240;16.478;2023-05-24T20:19:09;100055.75;;;16.36;63.94
19594;BME280;9944;48.240;16.478;2023-05-24T20:23:13;100062.06;;;16.32;64.04
19594;BME280;9944;48.240;16.478;2023-05-24T20:27:16;100066.63;;;16.27;64.19
19594;BME280;9944;48.240;16.478;2023-05-24T20:31:21;100069.50;;;16.18;64.12
19594;BME280;9944;48.240;16.478;2023-05-24T20:35:24;100067.94;;;16.09;64.59
19594;BME280;9944;48.240;16.478;2023-05-24T20:39:27;100098.16;;;16.06;64.92
19594;BME280;9944;48.240;16.478;2023-05-24T20:43:30;100098.22;;;16.03;65.04
19594;BME280;9944;48.240;16.478;2023-05-24T20:47:35;100092.09;;;16.00;65.26
19594;BME280;9944;48.240;16.478;2023-05-24T20:51:38;100101.91;;;15.96;65.17
19594;BME280;9944;48.240;16.478;2023-05-24T20:55:41;100112.63;;;15.93;65.31
19594;BME280;9944;48.240;16.478;2023-05-24T20:59:45;100111.88;;;15.88;65.74
19594;BME280;9944;48.240;16.478;2023-05-24T21:03:50;100109.34;;;15.79;65.89
19594;BME280;9944;48.240;16.478;2023-05-24T21:07:53;100114.88;;;15.69;66.20
19594;BME280;9944;48.240;16.478;2023-05-24T21:11:56;100111.41;;;15.64;66.45
19594;BME280;9944;48.240;16.478;2023-05-24T21:15:59;100116.94;;;15.55;66.43
19594;BME280;9944;48.240;16.478;2023-05-24T21:20:06;100110.03;;;15.45;66.26
19594;BME280;9944;48.240;16.478;2023-05-24T21:24:09;100110.13;;;15.39;66.16
19594;BME280;9944;48.240;16.478;2023-05-24T21:28:12;100119.13;;;15.31;66.33
19594;BME280;9944;48.240;16.478;2023-05-24T21:32:15;100117.47;;;15.24;66.13
19594;BME280;9944;48.240;16.478;2023-05-24T21:36:20;100132.63;;;15.21;66.23
19594;BME280;9944;48.240;16.478;2023-05-24T21:40:23;100130.06;;;15.15;66.45